Terminal Aerodrome Forecast
Issued by NWS

Home | Current Version | Previous Version | Graphics & Text | Print | Product List | Glossary On
Versions: 1 2 3 4 5 6 7 8 9 10 11 12 13 14
795
FTUS43 KICT 161900 AAA
TAFCNU
TAF AMD
KCNU 161900Z 1619/1718 33011KT P6SM SCT150
      TEMPO 1619/1623 BKN020
     FM170000 VRB04KT P6SM FEW250=

USA.gov is the U.S. government's official web portal to all federal, state and local government web resources and services.